createdAt,value
2023-08-15T00:01:34.945Z,25.30
2023-08-15T00:04:02.138Z,25.30
2023-08-15T00:06:31.068Z,25.30
2023-08-15T00:09:01.125Z,25.20
2023-08-15T00:11:28.363Z,25.20
2023-08-15T00:13:58.225Z,25.20
2023-08-15T00:16:25.441Z,25.20
2023-08-15T00:18:52.760Z,25.20
2023-08-15T00:21:19.975Z,25.20
2023-08-15T00:23:47.201Z,25.20
2023-08-15T00:26:15.620Z,25.10
2023-08-15T00:28:43.538Z,25.10
2023-08-15T00:31:10.696Z,25.10
2023-08-15T00:33:37.891Z,25.10
2023-08-15T00:36:05.809Z,25.10
2023-08-15T00:38:32.872Z,25.10
2023-08-15T00:41:00.095Z,25.10
2023-08-15T00:43:27.265Z,25.10
2023-08-15T00:45:54.724Z,25.10
2023-08-15T00:48:23.019Z,25.10
2023-08-15T00:50:51.605Z,25.10
2023-08-15T00:53:20.482Z,25.10
2023-08-15T00:55:48.090Z,25.00
2023-08-15T00:58:17.073Z,25.00
2023-08-15T01:00:44.710Z,24.90
2023-08-15T01:03:12.339Z,24.90
2023-08-15T01:05:40.747Z,24.90
2023-08-15T01:08:08.687Z,24.90
2023-08-15T01:10:35.978Z,24.80
2023-08-15T01:13:20.626Z,24.90
2023-08-15T01:15:52.112Z,24.80
2023-08-15T01:18:37.680Z,24.80
2023-08-15T01:21:06.055Z,24.80
2023-08-15T01:23:43.486Z,24.80
2023-08-15T01:26:10.957Z,24.70
2023-08-15T01:28:40.097Z,24.70
2023-08-15T01:31:18.537Z,24.70
2023-08-15T01:33:56.762Z,24.70
2023-08-15T01:36:30.250Z,24.70
2023-08-15T01:39:01.419Z,24.70
2023-08-15T01:41:31.898Z,24.70
2023-08-15T01:44:00.541Z,24.60
2023-08-15T01:46:27.804Z,24.50
2023-08-15T01:48:55.130Z,24.40
2023-08-15T01:51:22.136Z,24.40
2023-08-15T01:53:50.629Z,24.30
2023-08-15T01:56:17.857Z,24.20
2023-08-15T01:58:44.901Z,24.20
2023-08-15T02:01:12.071Z,24.10
2023-08-15T02:03:39.181Z,24.10
2023-08-15T02:06:06.447Z,24.00
2023-08-15T02:08:33.597Z,23.90
2023-08-15T02:11:00.766Z,23.80
2023-08-15T02:13:31.961Z,23.80
2023-08-15T02:15:59.308Z,23.70
2023-08-15T02:18:33.330Z,23.60
2023-08-15T02:21:00.390Z,23.60
2023-08-15T02:23:27.511Z,23.50
2023-08-15T02:25:54.819Z,23.50
2023-08-15T02:28:22.094Z,23.40
2023-08-15T02:30:49.207Z,23.40
2023-08-15T02:33:16.281Z,23.40
2023-08-15T02:35:43.653Z,23.30
2023-08-15T02:38:10.785Z,23.30
2023-08-15T02:40:37.839Z,23.20
2023-08-15T02:43:05.088Z,23.30
2023-08-15T02:45:32.756Z,23.20
2023-08-15T02:47:59.844Z,23.20
2023-08-15T02:50:27.125Z,23.10
2023-08-15T02:52:54.313Z,23.10
2023-08-15T02:55:21.411Z,23.00
2023-08-15T02:57:48.826Z,22.90
2023-08-15T03:00:16.179Z,22.90
2023-08-15T03:02:43.408Z,22.80
2023-08-15T03:05:10.840Z,22.80
2023-08-15T03:07:42.404Z,22.70
2023-08-15T03:10:10.981Z,22.70
2023-08-15T03:12:38.146Z,22.70
2023-08-15T03:15:05.928Z,22.70
2023-08-15T03:17:35.995Z,22.80
2023-08-15T03:20:03.246Z,22.70
2023-08-15T03:22:30.373Z,22.70
2023-08-15T03:24:59.468Z,22.60
2023-08-15T03:27:26.627Z,22.50
2023-08-15T03:29:53.725Z,22.50
2023-08-15T03:32:20.762Z,22.50
2023-08-15T03:34:47.773Z,22.40
2023-08-15T03:37:14.885Z,22.40
2023-08-15T03:39:41.986Z,22.30
2023-08-15T03:42:09.070Z,22.30
2023-08-15T03:44:36.142Z,22.30
2023-08-15T03:47:03.345Z,22.20
2023-08-15T03:49:30.472Z,22.10
2023-08-15T03:51:57.530Z,22.10
2023-08-15T03:54:24.631Z,22.00
2023-08-15T03:56:51.787Z,22.10
2023-08-15T03:59:19.471Z,22.10
2023-08-15T04:01:46.517Z,22.20
2023-08-15T04:04:13.718Z,22.30
2023-08-15T04:06:40.859Z,22.30
2023-08-15T04:09:07.898Z,22.20
2023-08-15T04:11:34.940Z,22.20
2023-08-15T04:14:01.977Z,22.10
2023-08-15T04:16:29.134Z,22.10
2023-08-15T04:18:56.298Z,22.10
2023-08-15T04:21:23.412Z,22.10
2023-08-15T04:23:50.452Z,22.10
2023-08-15T04:26:17.677Z,22.10
2023-08-15T04:28:44.845Z,22.00
2023-08-15T04:31:12.011Z,22.00
2023-08-15T04:33:39.110Z,22.10
2023-08-15T04:36:06.350Z,22.10
2023-08-15T04:38:33.478Z,22.10
2023-08-15T04:41:01.041Z,22.20
2023-08-15T04:43:28.213Z,22.20
2023-08-15T04:45:55.355Z,22.20
2023-08-15T04:48:22.867Z,22.20
2023-08-15T04:50:50.030Z,22.20
2023-08-15T04:53:17.112Z,22.20
2023-08-15T04:55:44.263Z,22.20
2023-08-15T04:58:11.407Z,22.30
2023-08-15T05:00:38.915Z,22.30
2023-08-15T05:03:06.421Z,22.30
2023-08-15T05:05:33.640Z,22.30
2023-08-15T05:08:00.913Z,22.40
2023-08-15T05:10:28.103Z,22.40
2023-08-15T05:12:57.808Z,22.50
2023-08-15T05:15:25.234Z,22.60
2023-08-15T05:17:52.619Z,22.60
2023-08-15T05:20:19.877Z,22.60
2023-08-15T05:22:46.957Z,22.60
2023-08-15T05:25:14.032Z,22.70
2023-08-15T05:27:41.160Z,22.70
2023-08-15T05:30:09.394Z,22.80
2023-08-15T05:32:36.632Z,22.80
2023-08-15T05:35:03.958Z,22.90
2023-08-15T05:37:31.172Z,22.90
2023-08-15T05:40:04.369Z,23.00
2023-08-15T05:42:32.474Z,23.00
2023-08-15T05:44:59.525Z,23.10
2023-08-15T05:47:26.704Z,23.20
2023-08-15T05:49:53.812Z,23.20
2023-08-15T05:52:21.226Z,23.30
2023-08-15T05:54:48.438Z,23.30
2023-08-15T05:57:15.653Z,23.40
2023-08-15T05:59:42.819Z,23.40
2023-08-15T06:02:10.910Z,23.40
2023-08-15T06:04:38.182Z,23.40
2023-08-15T06:07:05.438Z,23.40
2023-08-15T06:09:32.701Z,23.40
2023-08-15T06:11:59.998Z,23.50
2023-08-15T06:14:27.126Z,23.50
2023-08-15T06:16:54.496Z,23.60
2023-08-15T06:19:21.600Z,23.60
2023-08-15T06:21:48.770Z,23.60
2023-08-15T06:24:15.951Z,23.60
2023-08-15T06:26:43.135Z,23.60
2023-08-15T06:29:10.951Z,23.70
2023-08-15T06:31:38.117Z,23.70
2023-08-15T06:34:05.864Z,23.70
2023-08-15T06:36:33.305Z,23.70
2023-08-15T06:39:00.762Z,23.80
2023-08-15T06:41:28.079Z,23.80
2023-08-15T06:43:55.182Z,23.80
2023-08-15T06:46:22.351Z,23.90
2023-08-15T06:48:49.689Z,23.90
2023-08-15T06:51:16.843Z,23.90
2023-08-15T06:53:46.989Z,23.90
2023-08-15T06:56:14.338Z,24.00
2023-08-15T06:58:41.495Z,24.00
2023-08-15T07:01:08.739Z,24.10
2023-08-15T07:03:35.954Z,24.10
2023-08-15T07:06:05.293Z,24.20
2023-08-15T07:08:32.570Z,24.20
2023-08-15T07:11:01.164Z,24.20
2023-08-15T07:13:28.902Z,24.30
2023-08-15T07:15:59.522Z,24.30
2023-08-15T07:18:27.114Z,24.30
2023-08-15T07:20:54.636Z,24.40
2023-08-15T07:23:22.044Z,24.40
2023-08-15T07:25:49.521Z,24.40
2023-08-15T07:28:16.781Z,24.50
2023-08-15T07:30:47.241Z,24.50
2023-08-15T07:33:17.740Z,24.50
2023-08-15T07:35:44.944Z,24.60
2023-08-15T07:38:12.087Z,24.60
2023-08-15T07:40:39.374Z,24.70
2023-08-15T07:43:06.584Z,24.70
2023-08-15T07:45:33.744Z,24.70
2023-08-15T07:48:01.103Z,24.80
2023-08-15T07:50:30.186Z,24.90
2023-08-15T07:53:00.867Z,24.90
2023-08-15T07:55:32.753Z,25.00
2023-08-15T07:58:01.040Z,25.00
2023-08-15T08:00:28.785Z,25.10
2023-08-15T08:02:56.280Z,25.20
2023-08-15T08:05:23.951Z,25.20
2023-08-15T08:07:51.446Z,25.30
2023-08-15T08:10:19.234Z,25.40
2023-08-15T08:12:49.106Z,25.40
2023-08-15T08:15:16.280Z,25.50
2023-08-15T08:17:43.433Z,25.50
2023-08-15T08:20:19.169Z,25.60
2023-08-15T08:22:46.488Z,25.60
2023-08-15T08:25:19.538Z,25.70
2023-08-15T08:27:47.581Z,25.70
2023-08-15T08:30:18.070Z,25.80
2023-08-15T08:32:45.797Z,25.80
2023-08-15T08:35:17.222Z,25.90
2023-08-15T08:37:45.542Z,25.90
2023-08-15T08:40:14.363Z,26.00
2023-08-15T08:42:45.697Z,26.00
2023-08-15T08:45:13.426Z,26.10
2023-08-15T08:47:42.267Z,26.20
2023-08-15T08:50:13.232Z,26.20
2023-08-15T08:52:50.672Z,26.30
2023-08-15T08:55:20.707Z,26.30
2023-08-15T08:57:54.320Z,26.40
2023-08-15T09:00:30.372Z,26.50
2023-08-15T09:02:58.964Z,26.50
2023-08-15T09:05:27.869Z,26.60
2023-08-15T09:07:55.138Z,26.70
2023-08-15T09:10:23.365Z,26.80
2023-08-15T09:12:50.583Z,26.80
2023-08-15T09:15:17.885Z,26.90
2023-08-15T09:17:45.309Z,27.00
2023-08-15T09:20:18.075Z,27.00
2023-08-15T09:22:47.317Z,27.10
2023-08-15T09:25:21.904Z,27.30
2023-08-15T09:27:49.120Z,27.40
2023-08-15T09:30:20.752Z,27.50
2023-08-15T09:32:48.608Z,27.60
2023-08-15T09:35:18.587Z,27.80
2023-08-15T09:37:48.619Z,28.00
2023-08-15T09:40:25.390Z,28.20
2023-08-15T09:42:56.025Z,28.30
2023-08-15T09:45:23.263Z,28.50
2023-08-15T09:47:51.034Z,28.70
2023-08-15T09:50:18.471Z,28.90
2023-08-15T09:52:51.953Z,29.20
2023-08-15T09:55:20.851Z,29.40
2023-08-15T09:57:48.278Z,29.70
2023-08-15T10:00:19.105Z,30.00
2023-08-15T10:03:11.333Z,30.30
2023-08-15T10:05:43.404Z,30.50
2023-08-15T10:08:12.820Z,30.80
2023-08-15T10:10:40.816Z,31.00
2023-08-15T10:13:09.557Z,31.20
2023-08-15T10:15:38.007Z,31.30
2023-08-15T10:18:06.474Z,31.50
2023-08-15T10:20:38.401Z,31.60
2023-08-15T10:23:09.381Z,31.70
2023-08-15T10:25:41.394Z,31.80
2023-08-15T10:28:11.382Z,32.00
2023-08-15T10:30:51.494Z,32.00
2023-08-15T10:33:22.510Z,32.20
2023-08-15T10:35:56.966Z,32.30
2023-08-15T10:38:31.477Z,32.50
2023-08-15T10:41:03.303Z,32.70
2023-08-15T10:43:31.092Z,32.90
2023-08-15T10:46:03.907Z,33.00
2023-08-15T10:49:03.046Z,33.10
2023-08-15T10:51:37.787Z,33.30
2023-08-15T10:54:07.827Z,33.50
2023-08-15T10:56:37.143Z,33.60
2023-08-15T10:59:15.786Z,33.70
2023-08-15T11:01:45.636Z,33.80
2023-08-15T11:04:24.703Z,33.90
2023-08-15T11:06:55.281Z,34.00
2023-08-15T11:09:30.188Z,34.10
2023-08-15T11:12:08.974Z,34.10
2023-08-15T11:14:36.245Z,34.20
2023-08-15T11:17:03.378Z,34.30
2023-08-15T11:19:30.838Z,34.40
2023-08-15T11:21:59.273Z,34.40
2023-08-15T11:24:31.818Z,34.40
2023-08-15T11:26:59.035Z,34.60
2023-08-15T11:29:26.969Z,34.70
2023-08-15T11:31:55.985Z,34.70
2023-08-15T11:34:23.757Z,34.90
2023-08-15T11:36:51.200Z,34.90
2023-08-15T11:39:19.500Z,35.00
2023-08-15T11:41:53.592Z,35.00
2023-08-15T11:44:23.740Z,35.00
2023-08-15T11:46:55.400Z,35.00
2023-08-15T11:49:24.489Z,35.00
2023-08-15T11:51:52.648Z,35.00
2023-08-15T11:54:19.973Z,35.10
2023-08-15T11:56:54.522Z,35.20
2023-08-15T11:59:21.887Z,35.30
2023-08-15T12:01:50.405Z,35.30
2023-08-15T12:04:17.982Z,35.40
2023-08-15T12:06:45.327Z,35.40
2023-08-15T12:09:13.695Z,35.40
2023-08-15T12:11:41.148Z,35.50
2023-08-15T12:14:19.447Z,35.50
2023-08-15T12:16:46.818Z,35.50
2023-08-15T12:19:16.570Z,35.50
2023-08-15T12:21:45.266Z,35.50
2023-08-15T12:24:12.440Z,35.50
2023-08-15T12:26:39.563Z,35.50
2023-08-15T12:29:06.588Z,35.60
2023-08-15T12:31:36.939Z,35.60
2023-08-15T12:34:04.249Z,35.60
2023-08-15T12:36:32.157Z,35.60
2023-08-15T12:38:59.493Z,35.70
2023-08-15T12:41:26.654Z,35.70
2023-08-15T12:43:53.984Z,35.70
2023-08-15T12:46:21.231Z,35.70
2023-08-15T12:48:48.263Z,35.60
2023-08-15T12:51:17.011Z,35.50
2023-08-15T12:53:44.042Z,35.40
2023-08-15T12:56:11.189Z,35.30
2023-08-15T12:58:38.710Z,35.20
2023-08-15T13:01:06.040Z,35.30
2023-08-15T13:03:33.115Z,35.30
2023-08-15T13:06:00.295Z,35.40
2023-08-15T13:08:27.483Z,35.50
2023-08-15T13:10:55.396Z,35.50
2023-08-15T13:13:22.605Z,35.50
2023-08-15T13:15:51.704Z,35.40
2023-08-15T13:18:19.254Z,35.30
2023-08-15T13:20:46.810Z,35.30
2023-08-15T13:23:13.885Z,35.20
2023-08-15T13:25:41.355Z,35.20
2023-08-15T13:28:08.454Z,35.10
2023-08-15T13:30:35.644Z,35.10
2023-08-15T13:33:02.790Z,35.10
2023-08-15T13:35:30.006Z,35.10
2023-08-15T13:37:57.153Z,35.20
2023-08-15T13:40:24.231Z,35.20
2023-08-15T13:42:51.634Z,35.10
2023-08-15T13:45:18.800Z,35.20
2023-08-15T13:47:45.958Z,35.20
2023-08-15T13:50:13.127Z,35.30
2023-08-15T13:52:40.255Z,35.30
2023-08-15T13:55:07.993Z,35.30
2023-08-15T13:57:35.101Z,35.30
2023-08-15T14:00:03.333Z,35.30
2023-08-15T14:02:31.849Z,35.30
2023-08-15T14:05:00.105Z,35.30
2023-08-15T14:07:27.227Z,35.30
2023-08-15T14:09:56.494Z,35.30
2023-08-15T14:12:26.212Z,35.40
2023-08-15T14:14:53.708Z,35.40
2023-08-15T14:17:20.920Z,35.40
2023-08-15T14:19:48.081Z,35.40
2023-08-15T14:22:16.457Z,35.40
2023-08-15T14:24:50.488Z,35.30
2023-08-15T14:27:20.812Z,35.20
2023-08-15T14:29:50.192Z,35.20
2023-08-15T14:32:17.992Z,35.10
2023-08-15T14:34:45.105Z,35.00
2023-08-15T14:37:12.293Z,34.90
2023-08-15T14:39:39.362Z,34.90
2023-08-15T14:42:06.628Z,34.80
2023-08-15T14:44:34.117Z,34.80
2023-08-15T14:47:01.279Z,34.70
2023-08-15T14:49:28.549Z,34.50
2023-08-15T14:51:55.761Z,34.40
2023-08-15T14:54:22.928Z,34.30
2023-08-15T14:56:50.045Z,34.30
2023-08-15T14:59:18.769Z,34.20
2023-08-15T15:01:45.954Z,34.10
2023-08-15T15:04:13.290Z,34.00
2023-08-15T15:06:40.366Z,33.90
2023-08-15T15:09:07.474Z,33.80
2023-08-15T15:11:34.554Z,33.70
2023-08-15T15:14:02.013Z,33.60
2023-08-15T15:16:29.247Z,33.50
2023-08-15T15:18:56.954Z,33.30
2023-08-15T15:21:24.182Z,33.10
2023-08-15T15:23:51.324Z,32.90
2023-08-15T15:26:18.527Z,32.80
2023-08-15T15:28:46.050Z,32.70
2023-08-15T15:31:13.103Z,32.60
2023-08-15T15:33:40.184Z,32.50
2023-08-15T15:36:07.325Z,32.30
2023-08-15T15:38:34.436Z,32.20
2023-08-15T15:41:01.479Z,32.10
2023-08-15T15:43:28.803Z,32.00
2023-08-15T15:45:55.930Z,31.90
2023-08-15T15:48:23.134Z,31.80
2023-08-15T15:50:50.320Z,31.80
2023-08-15T15:53:17.390Z,31.70
2023-08-15T15:55:44.487Z,31.70
2023-08-15T15:58:11.667Z,31.70
2023-08-15T16:00:38.641Z,31.60
2023-08-15T16:03:06.541Z,31.60
2023-08-15T16:05:33.854Z,31.50
2023-08-15T16:08:00.890Z,31.50
2023-08-15T16:10:27.996Z,31.50
2023-08-15T16:12:55.011Z,31.40
2023-08-15T16:15:22.251Z,31.30
2023-08-15T16:17:50.280Z,31.20
2023-08-15T16:20:17.508Z,31.20
2023-08-15T16:22:44.699Z,31.10
2023-08-15T16:25:11.813Z,31.10
2023-08-15T16:27:38.950Z,31.00
2023-08-15T16:30:17.139Z,31.00
2023-08-15T16:32:47.057Z,31.00
2023-08-15T16:35:14.859Z,30.90
2023-08-15T16:37:42.328Z,30.80
2023-08-15T16:40:09.785Z,30.80
2023-08-15T16:42:37.007Z,30.70
2023-08-15T16:45:04.681Z,30.60
2023-08-15T16:47:31.929Z,30.50
2023-08-15T16:49:59.066Z,30.40
2023-08-15T16:52:26.334Z,30.30
2023-08-15T16:54:53.341Z,30.20
2023-08-15T16:57:22.754Z,30.10
2023-08-15T16:59:49.749Z,30.00
2023-08-15T17:02:17.034Z,29.90
2023-08-15T17:04:45.512Z,29.80
2023-08-15T17:07:12.728Z,29.80
2023-08-15T17:09:40.008Z,29.70
2023-08-15T17:12:07.423Z,29.60
2023-08-15T17:14:34.796Z,29.50
2023-08-15T17:17:02.025Z,29.50
2023-08-15T17:19:29.225Z,29.40
2023-08-15T17:21:56.283Z,29.40
2023-08-15T17:24:24.664Z,29.30
2023-08-15T17:26:51.696Z,29.30
2023-08-15T17:29:18.970Z,29.30
2023-08-15T17:31:48.161Z,29.20
2023-08-15T17:34:15.288Z,29.20
2023-08-15T17:36:42.774Z,29.10
2023-08-15T17:39:10.188Z,29.00
2023-08-15T17:41:37.230Z,29.00
2023-08-15T17:44:05.769Z,28.90
2023-08-15T17:46:33.189Z,28.80
2023-08-15T17:49:00.296Z,28.80
2023-08-15T17:51:27.428Z,28.70
2023-08-15T17:53:54.592Z,28.70
2023-08-15T17:56:23.613Z,28.60
2023-08-15T17:58:55.920Z,28.60
2023-08-15T18:01:23.372Z,28.60
2023-08-15T18:03:51.407Z,28.50
2023-08-15T18:06:19.212Z,28.50
2023-08-15T18:08:47.978Z,28.40
2023-08-15T18:11:15.575Z,28.40
2023-08-15T18:13:43.599Z,28.40
2023-08-15T18:16:12.129Z,28.30
2023-08-15T18:18:39.345Z,28.30
2023-08-15T18:21:06.818Z,28.30
2023-08-15T18:23:33.995Z,28.20
2023-08-15T18:26:01.206Z,28.20
2023-08-15T18:28:28.308Z,28.10
2023-08-15T18:30:55.920Z,28.10
2023-08-15T18:33:23.268Z,28.00
2023-08-15T18:35:54.978Z,28.00
2023-08-15T18:38:22.072Z,27.90
2023-08-15T18:40:49.292Z,27.90
2023-08-15T18:43:16.434Z,27.90
2023-08-15T18:45:44.933Z,27.90
2023-08-15T18:48:12.998Z,27.80
2023-08-15T18:50:44.016Z,27.70
2023-08-15T18:53:11.666Z,27.60
2023-08-15T18:55:40.437Z,27.60
2023-08-15T18:58:08.569Z,27.40
2023-08-15T19:00:35.959Z,27.30
2023-08-15T19:03:03.220Z,27.10
2023-08-15T19:05:30.602Z,27.00
2023-08-15T19:07:57.972Z,26.80
2023-08-15T19:10:25.243Z,26.80
2023-08-15T19:12:52.298Z,26.70
2023-08-15T19:15:22.696Z,26.60
2023-08-15T19:17:51.146Z,26.60
2023-08-15T19:20:21.707Z,26.60
2023-08-15T19:22:49.509Z,26.50
2023-08-15T19:25:17.578Z,26.50
2023-08-15T19:27:45.082Z,26.50
2023-08-15T19:30:13.193Z,26.50
2023-08-15T19:32:40.613Z,26.50
2023-08-15T19:35:08.046Z,26.40
2023-08-15T19:37:38.380Z,26.40
2023-08-15T19:40:08.384Z,26.40
2023-08-15T19:42:42.673Z,26.40
2023-08-15T19:45:11.481Z,26.40
2023-08-15T19:47:39.495Z,26.40
2023-08-15T19:50:08.407Z,26.40
2023-08-15T19:52:36.166Z,26.40
2023-08-15T19:55:04.549Z,26.40
2023-08-15T19:57:33.385Z,26.40
2023-08-15T20:00:01.037Z,26.40
2023-08-15T20:02:28.461Z,26.40
2023-08-15T20:04:57.129Z,26.40
2023-08-15T20:07:24.493Z,26.40
2023-08-15T20:10:03.959Z,26.40
2023-08-15T20:12:35.986Z,26.40
2023-08-15T20:15:03.447Z,26.40
2023-08-15T20:17:30.884Z,26.40
2023-08-15T20:19:58.013Z,26.40
2023-08-15T20:22:25.412Z,26.30
2023-08-15T20:24:53.120Z,26.20
2023-08-15T20:27:20.482Z,26.20
2023-08-15T20:29:47.846Z,26.10
2023-08-15T20:32:15.046Z,26.10
2023-08-15T20:34:42.150Z,26.10
2023-08-15T20:37:09.809Z,26.10
2023-08-15T20:39:36.895Z,26.20
2023-08-15T20:42:05.181Z,26.20
2023-08-15T20:44:33.168Z,26.20
2023-08-15T20:47:00.776Z,26.20
2023-08-15T20:49:28.232Z,26.20
2023-08-15T20:51:55.546Z,26.20
2023-08-15T20:54:24.238Z,26.20
2023-08-15T20:56:51.706Z,26.20
2023-08-15T20:59:18.900Z,26.10
2023-08-15T21:01:46.057Z,26.10
2023-08-15T21:04:13.259Z,26.10
2023-08-15T21:06:40.644Z,26.00
2023-08-15T21:09:08.184Z,26.00
2023-08-15T21:11:37.337Z,26.00
2023-08-15T21:14:04.578Z,26.00
2023-08-15T21:16:31.982Z,26.00
2023-08-15T21:18:59.627Z,26.00
2023-08-15T21:21:26.807Z,26.00
2023-08-15T21:23:54.040Z,26.00
2023-08-15T21:26:21.735Z,26.00
2023-08-15T21:28:48.931Z,26.00
2023-08-15T21:31:16.120Z,26.00
2023-08-15T21:33:43.272Z,26.00
2023-08-15T21:36:10.401Z,25.90
2023-08-15T21:38:37.440Z,25.90
2023-08-15T21:41:04.766Z,25.90
2023-08-15T21:43:32.253Z,25.80
2023-08-15T21:45:59.343Z,25.80
2023-08-15T21:48:26.578Z,25.80
2023-08-15T21:50:53.649Z,25.80
2023-08-15T21:53:20.734Z,25.80
2023-08-15T21:55:48.591Z,25.80
2023-08-15T21:58:15.825Z,25.80
2023-08-15T22:00:43.973Z,25.80
2023-08-15T22:03:11.698Z,25.70
2023-08-15T22:05:39.119Z,25.70
2023-08-15T22:08:06.503Z,25.70
2023-08-15T22:10:33.702Z,25.70
2023-08-15T22:13:01.165Z,25.60
2023-08-15T22:15:28.554Z,25.60
2023-08-15T22:18:12.626Z,25.50
2023-08-15T22:20:42.871Z,25.60
2023-08-15T22:23:09.981Z,25.60
2023-08-15T22:25:37.049Z,25.60
2023-08-15T22:28:05.160Z,25.60
2023-08-15T22:30:32.339Z,25.60
2023-08-15T22:32:59.588Z,25.60
2023-08-15T22:35:44.466Z,25.60
2023-08-15T22:38:11.547Z,25.60
2023-08-15T22:40:38.799Z,25.60
2023-08-15T22:43:07.933Z,25.60
2023-08-15T22:45:35.417Z,25.60
2023-08-15T22:48:02.729Z,25.60
2023-08-15T22:50:29.874Z,25.60
2023-08-15T22:52:57.347Z,25.60
2023-08-15T22:55:24.710Z,25.50
2023-08-15T22:57:51.783Z,25.50
2023-08-15T23:00:19.211Z,25.50
2023-08-15T23:02:46.407Z,25.50
2023-08-15T23:05:13.726Z,25.50
2023-08-15T23:07:42.375Z,25.50
2023-08-15T23:10:10.067Z,25.50
2023-08-15T23:12:37.800Z,25.50
2023-08-15T23:15:06.474Z,25.40
2023-08-15T23:17:34.224Z,25.40
2023-08-15T23:20:01.532Z,25.40
2023-08-15T23:22:28.619Z,25.40
2023-08-15T23:24:55.914Z,25.40
2023-08-15T23:27:23.373Z,25.30
2023-08-15T23:29:50.782Z,25.30
2023-08-15T23:32:18.453Z,25.30
2023-08-15T23:34:46.016Z,25.30
2023-08-15T23:37:13.093Z,25.30
2023-08-15T23:39:40.187Z,25.30
2023-08-15T23:42:07.528Z,25.20
2023-08-15T23:44:34.626Z,25.20
2023-08-15T23:47:01.642Z,25.20
2023-08-15T23:49:29.265Z,25.10
2023-08-15T23:51:56.720Z,25.10
2023-08-15T23:54:24.113Z,25.10
2023-08-15T23:56:51.196Z,25.10
2023-08-15T23:59:18.326Z,25.10
